Archer City, Texas
Current Conditions -  °F | °C
As of 6:35 PM on Sunday 21 Dec 2014 (Local Time) from KCWC Reporting Station
Clear Clear  
Wind Chill: 10°   Ceiling: Unl
Heat Index: 10°   Visibility: 10mi
Dew Point:   Wind: 12mph
Humidity: 79%   Direction: 150°SSE
Pressure: 29.72"   Gusts: 17mph
Location:  33.6°N, 98.63°W
Report Text: KCWC 220035Z AUTO 15010G15KT 10SM CLR 10/07 A2972 RMK AO2 T01000065
Loading
Personal Weather Stations






























Interactive Weather Map New forecast layout! Learn more

10-Day Weather Forecast

Advertisements
Track Severe Weather on mobile